Time;durP1;ratioP1;P1;durP2;ratioP2;P2;SDS_P1;SDS_P2;PMS_P1;PMS_P2;Temp;Humidity;BMP_temperature;BMP_pressure;BME280_temperature;BME280_humidity;BME280_pressure;Samples;Min_cycle;Max_cycle;Signal;HPM_P1;HPM_P2
2024/04/03 00:00:59;;;;;;;2.45;1.13;;;15.30;65.50;;;;;;5036001;28;20219;-54
2024/04/03 00:03:44;;;;;;;1.80;0.90;;;15.20;65.40;;;;;;5026585;28;20083;-53
2024/04/03 00:06:29;;;;;;;3.63;0.90;;;15.20;65.40;;;;;;5032806;28;20559;-53
2024/04/03 00:09:14;;;;;;;2.10;0.90;;;15.20;65.50;;;;;;5033578;28;20098;-51
2024/04/03 00:11:58;;;;;;;1.80;0.60;;;15.20;65.50;;;;;;5054621;28;20134;-52
2024/04/03 00:14:43;;;;;;;3.35;1.30;;;15.20;65.50;;;;;;5025954;28;20083;-50
2024/04/03 00:17:28;;;;;;;2.53;0.70;;;15.20;65.60;;;;;;5031598;28;20187;-50
2024/04/03 00:20:12;;;;;;;1.63;0.80;;;15.20;65.60;;;;;;5021396;28;20573;-53
2024/04/03 00:22:57;;;;;;;3.45;0.82;;;15.20;65.60;;;;;;5026261;28;20071;-55
2024/04/03 00:25:42;;;;;;;3.03;0.90;;;15.20;65.60;;;;;;5056827;28;20032;-55
2024/04/03 00:28:28;;;;;;;3.47;1.60;;;15.10;65.50;;;;;;5038307;28;20226;-53
2024/04/03 00:31:13;;;;;;;2.45;1.17;;;15.20;65.70;;;;;;5032695;28;20694;-54
2024/04/03 00:33:58;;;;;;;4.40;1.42;;;15.10;65.50;;;;;;5032209;28;20036;-52
2024/04/03 00:36:42;;;;;;;3.22;0.80;;;15.10;65.60;;;;;;5043886;28;20041;-52
2024/04/03 00:39:27;;;;;;;3.03;0.85;;;15.10;65.60;;;;;;5026090;28;20114;-49
2024/04/03 00:42:11;;;;;;;2.75;1.02;;;15.10;65.70;;;;;;5032912;28;20056;-51
2024/04/03 00:44:56;;;;;;;4.10;0.80;;;15.10;65.70;;;;;;5033838;28;20115;-56
2024/04/03 00:47:40;;;;;;;1.80;0.70;;;15.10;65.80;;;;;;5042538;28;20161;-54
2024/04/03 00:50:25;;;;;;;2.50;0.90;;;15.10;65.80;;;;;;5036111;28;20067;-53
2024/04/03 00:53:10;;;;;;;1.75;0.70;;;15.00;65.70;;;;;;5034234;28;20124;-53
2024/04/03 00:55:55;;;;;;;1.80;1.10;;;15.00;65.70;;;;;;5027299;28;20790;-52
2024/04/03 00:58:40;;;;;;;3.33;1.00;;;15.00;65.70;;;;;;5051579;28;20107;-55
2024/04/03 01:01:24;;;;;;;3.60;1.00;;;15.00;65.80;;;;;;5030607;28;20374;-52
2024/04/03 01:04:09;;;;;;;1.05;0.95;;;15.00;65.80;;;;;;5035854;28;20048;-52
2024/04/03 01:06:54;;;;;;;2.08;0.88;;;15.00;65.80;;;;;;5030582;28;20228;-50
2024/04/03 01:09:38;;;;;;;2.67;2.03;;;15.00;65.90;;;;;;5047114;28;20652;-52
2024/04/03 01:12:23;;;;;;;2.67;0.70;;;15.00;65.90;;;;;;5034574;28;20124;-50
2024/04/03 01:15:10;;;;;;;2.67;0.73;;;14.90;65.80;;;;;;5033727;28;20048;-55
2024/04/03 01:17:58;;;;;;;1.98;0.85;;;15.00;66.00;;;;;;5025940;28;20051;-54
2024/04/03 01:20:43;;;;;;;3.15;1.02;;;15.00;66.00;;;;;;5024613;28;20036;-48
2024/04/03 01:23:28;;;;;;;3.72;1.00;;;15.00;66.00;;;;;;5035459;28;20043;-51
2024/04/03 01:26:12;;;;;;;3.75;0.70;;;14.90;65.90;;;;;;5057040;28;20482;-52
2024/04/03 01:28:57;;;;;;;2.70;1.50;;;14.90;65.90;;;;;;5036071;28;20320;-54
2024/04/03 01:31:42;;;;;;;2.95;0.65;;;14.90;65.90;;;;;;5047786;28;20052;-52
2024/04/03 01:34:26;;;;;;;2.78;0.63;;;14.90;66.00;;;;;;5029056;28;20526;-49
2024/04/03 01:37:12;;;;;;;2.70;0.93;;;14.90;66.00;;;;;;5030503;28;20083;-53
2024/04/03 01:39:57;;;;;;;3.03;1.23;;;14.90;66.10;;;;;;5024295;28;20090;-54
2024/04/03 01:42:41;;;;;;;2.53;0.90;;;14.80;65.90;;;;;;5021889;28;20095;-51
2024/04/03 01:45:26;;;;;;;3.03;0.98;;;14.80;65.90;;;;;;5022181;28;20347;-53
2024/04/03 01:48:11;;;;;;;2.15;1.20;;;14.80;66.00;;;;;;5032060;28;20510;-53
2024/04/03 01:50:56;;;;;;;4.63;1.23;;;14.80;66.00;;;;;;5026361;28;20079;-52
2024/04/03 01:53:40;;;;;;;2.92;1.17;;;14.80;66.10;;;;;;5031654;28;20114;-50
2024/04/03 01:56:25;;;;;;;4.72;1.10;;;14.70;66.00;;;;;;5036610;28;20330;-52
2024/04/03 01:59:09;;;;;;;4.32;1.05;;;14.80;66.20;;;;;;5043717;28;20055;-53
2024/04/03 02:01:54;;;;;;;3.67;1.27;;;14.80;66.20;;;;;;5050834;28;20530;-51
2024/04/03 02:04:39;;;;;;;3.58;1.10;;;14.70;66.00;;;;;;5039993;28;20103;-59
2024/04/03 02:07:24;;;;;;;3.58;0.70;;;14.80;66.20;;;;;;5050587;28;20135;-51
2024/04/03 02:10:09;;;;;;;3.10;1.10;;;14.70;66.10;;;;;;5049321;28;20482;-59
2024/04/03 02:12:53;;;;;;;6.93;1.23;;;14.70;66.10;;;;;;5055360;28;20511;-50
2024/04/03 02:15:38;;;;;;;4.07;1.40;;;14.70;66.10;;;;;;5038123;28;20040;-52
2024/04/03 02:18:22;;;;;;;4.90;1.02;;;14.70;66.20;;;;;;5032840;28;20538;-53
2024/04/03 02:21:07;;;;;;;7.60;1.58;;;14.70;66.20;;;;;;5074521;28;20075;-51
2024/04/03 02:23:52;;;;;;;5.10;1.60;;;14.70;66.30;;;;;;5040228;28;20110;-53
2024/04/03 02:26:37;;;;;;;5.53;1.25;;;14.70;66.30;;;;;;5037255;28;20599;-53
2024/04/03 02:29:21;;;;;;;6.43;1.60;;;14.70;66.30;;;;;;5041163;28;20584;-52
2024/04/03 02:32:06;;;;;;;10.68;2.25;;;14.70;66.30;;;;;;5029725;28;20130;-50
2024/04/03 02:34:55;;;;;;;4.03;1.70;;;14.60;66.10;;;;;;5026667;28;20027;-52
2024/04/03 02:37:40;;;;;;;8.73;2.15;;;14.70;66.40;;;;;;5026461;28;20051;-51
2024/04/03 02:40:34;;;;;;;9.43;2.72;;;14.60;66.10;;;;;;5029376;28;20043;-54
2024/04/03 02:43:18;;;;;;;8.05;2.35;;;14.60;66.20;;;;;;5020714;28;20360;-49
2024/04/03 02:46:03;;;;;;;10.40;3.50;;;14.60;66.20;;;;;;5038035;28;20106;-53
2024/04/03 02:48:48;;;;;;;10.02;2.10;;;14.60;66.20;;;;;;5025684;28;20607;-52
2024/04/03 02:51:33;;;;;;;8.55;1.88;;;14.60;66.30;;;;;;5056398;28;20140;-51
2024/04/03 02:54:18;;;;;;;9.35;2.42;;;14.60;66.30;;;;;;5042038;28;20040;-52
2024/04/03 02:57:03;;;;;;;9.55;2.70;;;14.50;66.10;;;;;;5032129;28;20039;-53
2024/04/03 02:59:48;;;;;;;7.20;1.90;;;14.60;66.30;;;;;;5075540;28;20059;-54
2024/04/03 03:02:32;;;;;;;8.98;2.50;;;14.50;66.20;;;;;;5030435;28;20056;-51
2024/04/03 03:05:17;;;;;;;11.73;2.63;;;14.60;66.40;;;;;;5032837;28;20072;-52
2024/04/03 03:08:05;;;;;;;9.50;2.10;;;14.50;66.20;;;;;;5049069;28;20044;-53
2024/04/03 03:10:50;;;;;;;6.93;1.83;;;14.50;66.30;;;;;;5044508;28;20047;-54
2024/04/03 03:13:34;;;;;;;12.35;2.97;;;14.50;66.30;;;;;;5038094;28;20039;-51
2024/04/03 03:16:23;;;;;;;10.35;2.33;;;14.50;66.30;;;;;;5051628;28;20551;-49
2024/04/03 03:19:10;;;;;;;10.80;3.85;;;14.50;66.40;;;;;;5047144;28;20040;-51
2024/04/03 03:21:55;;;;;;;9.85;2.00;;;14.50;66.40;;;;;;5049400;28;20044;-51
2024/04/03 03:24:39;;;;;;;5.10;1.70;;;14.50;66.40;;;;;;5039996;28;20075;-48
2024/04/03 03:27:24;;;;;;;6.22;1.70;;;14.50;66.40;;;;;;5044648;28;20044;-48
2024/04/03 03:30:09;;;;;;;8.88;2.97;;;14.50;66.40;;;;;;5034703;28;20191;-51
2024/04/03 03:32:54;;;;;;;11.13;2.40;;;14.50;66.90;;;;;;5033626;28;20098;-52
2024/04/03 03:35:39;;;;;;;9.05;2.90;;;14.40;66.20;;;;;;5026962;28;20056;-53
2024/04/03 03:38:24;;;;;;;9.60;2.47;;;14.40;66.20;;;;;;5042191;28;20058;-52
2024/04/03 03:41:08;;;;;;;7.22;2.28;;;14.40;66.20;;;;;;5040322;28;20116;-51
2024/04/03 03:43:54;;;;;;;11.70;2.33;;;14.40;66.20;;;;;;5040066;28;20036;-51
2024/04/03 03:46:38;;;;;;;6.70;2.00;;;14.40;66.30;;;;;;5029577;28;20064;-53
2024/04/03 03:52:40;;;;;;;6.07;1.60;;;14.40;66.30;;;;;;5040144;28;20372;-59
2024/04/03 03:55:29;;;;;;;8.73;2.08;;;14.30;66.00;;;;;;5037474;28;20492;-52
2024/04/03 03:58:18;;;;;;;6.68;1.75;;;14.30;66.10;;;;;;5029816;28;20228;-51
2024/04/03 04:01:04;;;;;;;7.05;1.98;;;14.30;66.00;;;;;;5040888;28;20122;-49
2024/04/03 04:03:48;;;;;;;8.20;2.03;;;14.40;66.30;;;;;;5049498;28;20091;-52
2024/04/03 04:06:33;;;;;;;4.63;1.25;;;14.30;66.00;;;;;;5040540;28;20389;-50
2024/04/03 04:09:18;;;;;;;6.90;2.08;;;14.30;66.20;;;;;;5041082;28;20557;-51
2024/04/03 04:12:03;;;;;;;6.30;1.65;;;14.30;66.00;;;;;;5050450;28;20142;-55
2024/04/03 04:14:49;;;;;;;5.60;1.40;;;14.30;66.00;;;;;;5051547;28;20545;-51
2024/04/03 04:17:34;;;;;;;5.18;1.48;;;14.30;66.00;;;;;;5030099;28;20390;-51
2024/04/03 04:20:21;;;;;;;4.25;1.40;;;14.30;66.00;;;;;;5043215;28;20437;-51
2024/04/03 04:23:06;;;;;;;4.88;1.33;;;14.30;66.00;;;;;;5038908;28;20048;-51
2024/04/03 04:26:00;;;;;;;6.70;1.50;;;14.30;66.00;;;;;;5032522;28;20124;-50
2024/04/03 04:28:45;;;;;;;6.85;1.20;;;14.20;65.80;;;;;;5042134;28;20059;-52
2024/04/03 04:31:30;;;;;;;7.07;1.35;;;14.30;66.00;;;;;;5034793;28;20039;-52
2024/04/03 04:34:15;;;;;;;4.80;1.33;;;14.30;65.90;;;;;;5037950;28;20549;-52
2024/04/03 04:37:00;;;;;;;3.05;1.33;;;14.20;65.70;;;;;;5029110;28;20458;-53
2024/04/03 04:39:44;;;;;;;3.42;1.20;;;14.20;66.20;;;;;;5044216;28;20470;-52
2024/04/03 04:42:29;;;;;;;4.65;1.10;;;14.30;65.80;;;;;;5067738;28;20047;-47
2024/04/03 04:45:14;;;;;;;3.05;0.98;;;14.20;65.60;;;;;;5034945;28;20222;-52
2024/04/03 04:47:58;;;;;;;2.60;0.80;;;14.20;65.60;;;;;;5058927;28;20064;-50
2024/04/03 04:50:51;;;;;;;3.25;0.90;;;14.20;65.60;;;;;;5048877;28;20046;-53
2024/04/03 04:53:36;;;;;;;3.60;1.10;;;14.20;65.60;;;;;;5044780;28;20099;-50
2024/04/03 04:56:20;;;;;;;4.40;0.90;;;14.20;65.60;;;;;;5036527;28;20142;-52
2024/04/03 04:59:05;;;;;;;3.20;1.45;;;14.20;65.60;;;;;;5048391;28;20047;-51
2024/04/03 05:01:50;;;;;;;4.97;1.30;;;14.10;65.40;;;;;;5044910;28;20055;-50
2024/04/03 05:04:35;;;;;;;4.55;1.20;;;14.10;65.40;;;;;;5028461;28;20190;-51
2024/04/03 05:07:20;;;;;;;2.72;0.77;;;14.10;65.50;;;;;;5046200;28;20118;-49
2024/04/03 05:10:05;;;;;;;3.58;0.80;;;14.10;65.50;;;;;;5041820;28;20147;-52
2024/04/03 05:12:51;;;;;;;4.15;1.00;;;14.10;65.50;;;;;;5041996;28;20521;-52
2024/04/03 05:15:36;;;;;;;3.45;1.02;;;14.10;65.50;;;;;;5029104;28;20044;-52
2024/04/03 05:18:20;;;;;;;3.00;1.25;;;14.10;65.50;;;;;;5040099;28;20450;-51
2024/04/03 05:21:05;;;;;;;6.97;1.38;;;14.10;65.50;;;;;;5039127;28;20121;-49
2024/04/03 05:23:50;;;;;;;3.35;1.15;;;14.10;65.50;;;;;;5039314;28;20036;-53
2024/04/03 05:26:36;;;;;;;3.30;1.27;;;14.10;65.50;;;;;;5031315;28;20040;-50
2024/04/03 05:29:20;;;;;;;2.90;1.35;;;14.10;65.60;;;;;;5035442;28;20067;-50
2024/04/03 05:32:06;;;;;;;2.30;0.85;;;14.10;65.60;;;;;;5031737;28;20315;-51
2024/04/03 05:34:51;;;;;;;3.47;0.77;;;14.00;65.40;;;;;;5033982;28;20141;-51
2024/04/03 05:37:35;;;;;;;2.22;0.82;;;14.00;65.40;;;;;;5032371;28;20224;-53
2024/04/03 05:40:20;;;;;;;3.55;0.80;;;14.00;65.40;;;;;;5045780;28;20060;-53
2024/04/03 05:43:05;;;;;;;4.15;1.10;;;14.00;65.40;;;;;;5043069;28;20082;-52
2024/04/03 05:45:55;;;;;;;5.10;1.70;;;14.00;65.40;;;;;;5035741;28;20420;-50
2024/04/03 05:48:40;;;;;;;3.45;0.85;;;14.00;65.40;;;;;;5032148;28;20124;-49
2024/04/03 05:51:25;;;;;;;4.45;0.90;;;14.00;65.40;;;;;;5040637;28;20039;-54
2024/04/03 05:54:10;;;;;;;2.38;0.98;;;14.00;65.40;;;;;;5052794;28;20114;-54
2024/04/03 05:56:54;;;;;;;4.50;1.70;;;14.00;65.50;;;;;;5029973;28;20527;-52
2024/04/03 05:59:39;;;;;;;4.00;1.08;;;14.00;65.50;;;;;;5017690;28;20114;-51
2024/04/03 06:02:24;;;;;;;6.30;1.40;;;14.00;65.50;;;;;;5034194;28;20079;-57
2024/04/03 06:05:09;;;;;;;5.78;1.17;;;14.00;65.50;;;;;;5059086;28;20087;-54
2024/04/03 06:07:55;;;;;;;6.45;1.35;;;13.90;65.50;;;;;;5051750;28;20562;-52
2024/04/03 06:10:40;;;;;;;3.00;0.93;;;14.00;66.20;;;;;;5035463;28;20082;-56
2024/04/03 06:13:30;;;;;;;2.58;1.00;;;14.10;66.80;;;;;;5037206;28;20545;-54
2024/04/03 06:16:14;;;;;;;3.00;0.88;;;14.20;67.20;;;;;;5042237;28;20048;-60
2024/04/03 06:19:01;;;;;;;11.15;1.45;;;14.30;67.20;;;;;;5049346;28;20047;-54
2024/04/03 06:21:46;;;;;;;3.95;0.85;;;14.30;67.20;;;;;;5051567;28;20125;-55
2024/04/03 06:24:31;;;;;;;3.92;1.77;;;14.40;67.50;;;;;;5027560;28;20151;-54
2024/04/03 06:27:16;;;;;;;8.48;5.00;;;14.50;67.70;;;;;;5046321;28;20213;-50
2024/04/03 06:30:01;;;;;;;11.35;4.05;;;14.60;67.80;;;;;;5061205;28;20398;-50
2024/04/03 06:32:45;;;;;;;10.07;4.78;;;14.60;67.80;;;;;;5035134;28;20039;-53
2024/04/03 06:35:30;;;;;;;9.02;5.38;;;14.60;67.80;;;;;;5030418;28;20047;-55
2024/04/03 06:38:15;;;;;;;7.97;3.90;;;14.60;67.90;;;;;;5037005;28;20045;-56
2024/04/03 06:41:00;;;;;;;6.95;4.28;;;14.70;68.20;;;;;;5041413;28;20075;-56
2024/04/03 06:43:45;;;;;;;9.20;3.83;;;14.70;68.10;;;;;;5030369;28;20582;-57
2024/04/03 06:46:29;;;;;;;7.65;3.20;;;14.70;68.00;;;;;;5034488;28;20403;-57
2024/04/03 06:49:14;;;;;;;9.13;3.92;;;14.80;68.10;;;;;;5038089;28;20396;-54
2024/04/03 06:52:00;;;;;;;8.80;3.47;;;14.80;68.00;;;;;;5038636;28;20478;-56
2024/04/03 06:54:45;;;;;;;7.95;3.00;;;14.80;68.00;;;;;;5040645;28;20319;-56
2024/04/03 06:57:31;;;;;;;5.88;2.92;;;14.80;67.80;;;;;;5029043;28;20060;-55
2024/04/03 07:00:17;;;;;;;6.30;3.03;;;14.80;67.70;;;;;;5030689;28;20083;-55
2024/04/03 07:03:02;;;;;;;5.07;2.50;;;14.80;67.60;;;;;;5040336;28;20056;-57
2024/04/03 07:05:48;;;;;;;5.57;1.95;;;14.80;67.50;;;;;;5033983;28;20130;-55
2024/04/03 07:08:33;;;;;;;4.85;2.33;;;14.80;67.50;;;;;;5016223;28;20113;-57
2024/04/03 07:11:18;;;;;;;6.28;1.98;;;14.90;67.50;;;;;;5041010;28;20403;-55
2024/04/03 07:14:02;;;;;;;3.55;1.83;;;14.90;67.40;;;;;;5070231;28;20059;-56
2024/04/03 07:16:47;;;;;;;2.83;1.80;;;14.90;67.30;;;;;;5044391;28;20043;-56
2024/04/03 07:19:31;;;;;;;3.83;1.70;;;15.00;67.40;;;;;;5034228;28;20115;-54
2024/04/03 07:22:16;;;;;;;2.80;1.60;;;15.00;67.30;;;;;;5031912;28;21202;-55
2024/04/03 07:25:03;;;;;;;3.75;1.60;;;15.10;67.40;;;;;;5031347;28;20376;-54
2024/04/03 07:27:51;;;;;;;4.65;1.48;;;15.10;67.30;;;;;;5043386;28;20433;-57
2024/04/03 07:30:36;;;;;;;5.57;1.70;;;15.20;67.80;;;;;;5042645;28;20529;-53
2024/04/03 07:33:22;;;;;;;2.53;1.25;;;15.20;67.10;;;;;;5047498;28;20064;-58
2024/04/03 07:36:07;;;;;;;3.83;1.10;;;15.30;67.20;;;;;;5065504;28;20421;-55
2024/04/03 07:38:52;;;;;;;3.05;1.30;;;15.30;67.00;;;;;;5035060;28;20035;-55
2024/04/03 07:41:38;;;;;;;2.10;1.20;;;15.40;67.10;;;;;;5037395;28;20075;-57
2024/04/03 07:44:23;;;;;;;4.68;1.30;;;15.40;66.90;;;;;;5031279;28;20040;-56
2024/04/03 07:47:08;;;;;;;1.05;0.93;;;15.40;66.80;;;;;;5032667;28;20128;-57
2024/04/03 07:49:52;;;;;;;2.50;1.40;;;15.50;66.90;;;;;;5028278;28;20060;-58
2024/04/03 07:52:40;;;;;;;2.13;1.13;;;15.50;66.80;;;;;;5028515;28;20056;-59
2024/04/03 07:55:24;;;;;;;2.30;1.05;;;15.50;66.70;;;;;;5041083;28;20124;-59
2024/04/03 07:58:08;;;;;;;1.80;0.70;;;15.50;66.70;;;;;;5028205;28;20051;-61
2024/04/03 08:01:02;;;;;;;2.10;0.90;;;15.60;66.70;;;;;;5042102;28;20068;-60
2024/04/03 08:03:47;;;;;;;2.00;0.75;;;15.60;66.70;;;;;;5061473;28;20376;-61
2024/04/03 08:06:32;;;;;;;1.25;0.73;;;15.60;66.60;;;;;;5028504;28;20348;-58
2024/04/03 08:09:16;;;;;;;2.65;0.68;;;15.60;66.50;;;;;;5035134;28;20961;-59
2024/04/03 08:12:01;;;;;;;1.08;0.52;;;15.60;66.50;;;;;;5028881;28;20036;-60
2024/04/03 08:14:46;;;;;;;2.55;0.70;;;15.60;66.40;;;;;;5042671;28;20087;-59
2024/04/03 08:17:31;;;;;;;1.85;0.60;;;15.60;66.50;;;;;;5038714;28;20533;-59
2024/04/03 08:20:16;;;;;;;1.35;0.65;;;15.60;66.40;;;;;;5047131;28;20095;-58
2024/04/03 08:23:01;;;;;;;2.58;0.70;;;15.60;66.40;;;;;;5047506;28;20129;-58
2024/04/03 08:25:45;;;;;;;2.70;0.82;;;15.50;66.20;;;;;;5032070;28;20514;-57
2024/04/03 08:28:30;;;;;;;3.38;0.90;;;15.60;66.90;;;;;;5036489;28;20047;-57
2024/04/03 08:31:17;;;;;;;3.45;1.15;;;15.60;66.80;;;;;;5033966;28;20303;-57
2024/04/03 08:34:02;;;;;;;3.35;1.05;;;15.60;66.20;;;;;;5035101;28;20078;-57
2024/04/03 08:36:47;;;;;;;3.80;0.98;;;15.50;65.90;;;;;;5039291;28;20047;-59
2024/04/03 08:39:33;;;;;;;4.68;1.10;;;15.50;65.90;;;;;;5047612;28;20213;-57
2024/04/03 08:42:19;;;;;;;2.30;0.80;;;15.50;65.80;;;;;;5067760;28;20292;-57
2024/04/03 08:45:05;;;;;;;3.30;1.10;;;15.50;65.90;;;;;;5039387;28;20079;-57
2024/04/03 08:47:51;;;;;;;4.10;1.10;;;15.50;65.90;;;;;;5037688;28;20140;-56
2024/04/03 08:50:36;;;;;;;2.03;0.80;;;15.40;65.70;;;;;;5031042;28;20120;-56
2024/04/03 08:53:22;;;;;;;5.43;1.00;;;15.40;65.70;;;;;;5038493;28;20121;-57
2024/04/03 08:56:07;;;;;;;4.78;1.40;;;15.40;65.60;;;;;;5041577;28;20052;-57
2024/04/03 08:58:52;;;;;;;1.98;1.00;;;15.40;65.60;;;;;;5052742;28;20058;-57
2024/04/03 09:01:37;;;;;;;3.42;1.50;;;15.40;65.60;;;;;;5038875;28;20615;-57
2024/04/03 09:04:21;;;;;;;5.53;1.45;;;15.40;65.60;;;;;;5029753;28;20124;-56
2024/04/03 09:07:08;;;;;;;3.97;1.00;;;15.40;65.50;;;;;;5039547;28;20578;-56
2024/04/03 09:09:54;;;;;;;4.53;1.10;;;15.40;65.50;;;;;;5031481;28;20136;-58
2024/04/03 09:12:38;;;;;;;5.22;1.30;;;15.40;65.50;;;;;;5049854;28;20105;-57
2024/04/03 09:15:23;;;;;;;4.15;1.00;;;15.40;65.40;;;;;;5055481;28;20052;-60
2024/04/03 09:18:09;;;;;;;5.70;1.00;;;15.40;65.40;;;;;;5042225;28;20094;-58
2024/04/03 09:20:54;;;;;;;4.20;1.15;;;15.40;65.40;;;;;;5034854;28;20120;-57
2024/04/03 09:23:39;;;;;;;2.90;1.08;;;15.40;65.30;;;;;;5033714;28;20043;-58
2024/04/03 09:26:25;;;;;;;4.03;1.50;;;15.40;65.30;;;;;;5052299;28;20178;-60
2024/04/03 09:29:15;;;;;;;3.25;0.82;;;15.40;65.10;;;;;;5035622;28;20090;-58
2024/04/03 09:32:04;;;;;;;5.82;2.53;;;15.40;65.10;;;;;;5042402;28;20489;-59
2024/04/03 09:34:51;;;;;;;4.45;1.60;;;15.50;65.20;;;;;;5035504;28;20513;-58
2024/04/03 09:37:36;;;;;;;4.85;2.17;;;15.50;65.20;;;;;;5035634;28;20082;-58
2024/04/03 09:40:24;;;;;;;3.08;0.93;;;15.50;65.00;;;;;;5040551;28;20087;-58
2024/04/03 09:43:12;;;;;;;3.10;1.10;;;15.60;65.10;;;;;;5035035;28;20445;-58
2024/04/03 09:46:01;;;;;;;4.10;1.00;;;15.60;65.00;;;;;;5044909;28;20097;-57
2024/04/03 09:48:50;;;;;;;2.53;1.20;;;15.60;64.90;;;;;;5036102;28;20135;-57
2024/04/03 09:51:36;;;;;;;3.97;1.25;;;15.60;64.80;;;;;;5039928;28;20129;-59
2024/04/03 09:54:25;;;;;;;3.60;1.40;;;15.70;64.90;;;;;;5058482;28;20048;-55
2024/04/03 09:57:10;;;;;;;7.43;1.20;;;15.70;64.80;;;;;;5050432;28;20431;-57
2024/04/03 09:59:57;;;;;;;5.13;1.30;;;15.80;64.90;;;;;;5035113;28;20458;-57
2024/04/03 10:02:49;;;;;;;4.25;1.13;;;15.80;64.70;;;;;;5041799;28;20533;-56
2024/04/03 10:05:34;;;;;;;2.85;1.00;;;15.90;64.80;;;;;;5063764;28;20066;-57
2024/04/03 10:08:19;;;;;;;3.22;1.10;;;16.00;65.40;;;;;;5038992;28;20039;-57
2024/04/03 10:11:15;;;;;;;3.88;1.08;;;16.10;64.90;;;;;;5032613;28;20309;-57
2024/04/03 10:14:05;;;;;;;3.08;0.93;;;16.20;64.80;;;;;;5044049;28;20129;-56
2024/04/03 10:16:50;;;;;;;8.15;1.52;;;16.30;64.70;;;;;;5038331;28;20044;-59
2024/04/03 10:19:35;;;;;;;5.70;1.48;;;16.60;64.80;;;;;;5060299;28;20075;-57
2024/04/03 10:22:21;;;;;;;4.63;1.25;;;16.70;64.70;;;;;;5048470;28;20072;-56
2024/04/03 10:25:08;;;;;;;4.97;1.52;;;16.80;64.50;;;;;;5036988;28;20173;-57
2024/04/03 10:27:53;;;;;;;3.13;0.88;;;17.00;64.50;;;;;;5032036;28;20035;-57
2024/04/03 10:30:37;;;;;;;4.28;1.10;;;17.00;64.80;;;;;;5031947;28;20339;-58
2024/04/03 10:33:22;;;;;;;2.80;0.90;;;17.00;64.10;;;;;;5036785;28;20056;-58
2024/04/03 10:36:07;;;;;;;3.85;1.25;;;17.10;64.20;;;;;;5040588;28;20051;-58
2024/04/03 10:38:52;;;;;;;2.90;0.88;;;17.30;64.30;;;;;;5048687;28;20059;-58
2024/04/03 10:41:37;;;;;;;4.70;0.95;;;17.30;64.00;;;;;;5043106;28;20186;-56
2024/04/03 10:44:22;;;;;;;5.85;1.40;;;17.50;64.10;;;;;;5041751;28;20059;-57
2024/04/03 10:47:08;;;;;;;2.20;1.20;;;17.60;63.90;;;;;;5036106;28;20040;-58
2024/04/03 10:49:56;;;;;;;2.30;0.80;;;17.70;63.80;;;;;;5043374;28;20393;-57
2024/04/03 10:52:44;;;;;;;2.58;1.00;;;17.70;63.60;;;;;;5045404;28;20055;-57
2024/04/03 10:55:31;;;;;;;2.60;1.05;;;17.80;63.60;;;;;;5034639;28;20071;-57
2024/04/03 10:58:15;;;;;;;1.92;1.58;;;17.80;63.50;;;;;;5041220;28;20734;-57
2024/04/03 11:01:01;;;;;;;3.47;1.48;;;17.80;63.40;;;;;;5030951;28;20111;-56
2024/04/03 11:03:51;;;;;;;5.60;1.10;;;17.90;63.30;;;;;;5022047;28;20122;-57
2024/04/03 11:06:35;;;;;;;3.88;0.90;;;17.90;63.70;;;;;;5034670;28;20557;-58
2024/04/03 11:09:20;;;;;;;3.80;0.80;;;18.10;63.30;;;;;;5039784;28;20175;-57
2024/04/03 11:12:06;;;;;;;4.35;1.08;;;18.00;62.90;;;;;;5027175;28;20043;-58
2024/04/03 11:14:57;;;;;;;5.57;2.97;;;18.10;63.00;;;;;;5035929;28;20047;-57
2024/04/03 11:17:41;;;;;;;5.07;1.08;;;18.10;62.70;;;;;;5028825;28;20567;-58
2024/04/03 11:20:27;;;;;;;4.03;1.65;;;18.30;62.90;;;;;;5030323;28;20048;-58
2024/04/03 11:23:11;;;;;;;6.57;1.98;;;18.30;62.70;;;;;;5037809;28;20099;-58
2024/04/03 11:25:56;;;;;;;2.47;1.02;;;18.30;62.50;;;;;;5028891;28;20043;-58
2024/04/03 11:28:41;;;;;;;4.03;1.00;;;18.40;62.50;;;;;;5062913;28;20442;-57
2024/04/03 11:31:26;;;;;;;1.73;0.80;;;18.50;62.50;;;;;;5067260;28;20562;-58
2024/04/03 11:34:11;;;;;;;4.10;1.02;;;18.50;62.30;;;;;;5040270;28;20387;-56
2024/04/03 11:36:56;;;;;;;5.13;1.20;;;18.50;62.00;;;;;;5043526;28;20040;-58
2024/04/03 11:39:41;;;;;;;3.92;1.25;;;18.60;62.00;;;;;;5038682;28;20042;-56
2024/04/03 11:42:26;;;;;;;5.40;1.27;;;18.70;62.00;;;;;;5037378;28;20039;-57
2024/04/03 11:45:11;;;;;;;4.70;0.80;;;18.90;62.10;;;;;;5034595;28;20537;-58
2024/04/03 11:47:55;;;;;;;3.67;1.20;;;19.10;62.10;;;;;;5042524;28;20119;-59
2024/04/03 11:50:41;;;;;;;4.20;1.10;;;19.30;62.00;;;;;;5034607;28;20407;-58
2024/04/03 11:53:25;;;;;;;4.57;1.20;;;19.40;61.80;;;;;;5046198;28;20098;-56
2024/04/03 11:56:10;;;;;;;4.03;0.98;;;19.60;61.80;;;;;;5035844;28;20052;-55
2024/04/03 11:58:56;;;;;;;5.88;1.17;;;19.70;61.60;;;;;;5055105;28;20079;-54
2024/04/03 12:01:40;;;;;;;2.13;0.90;;;19.80;61.40;;;;;;5064023;28;20074;-56
2024/04/03 12:04:25;;;;;;;8.13;1.60;;;19.90;61.40;;;;;;5032563;28;20120;-56
2024/04/03 12:07:13;;;;;;;3.90;1.23;;;20.00;61.30;;;;;;5033935;28;20099;-57
2024/04/03 12:09:58;;;;;;;6.38;1.70;;;20.00;61.20;;;;;;5041963;28;20039;-57
2024/04/03 12:12:44;;;;;;;3.40;0.98;;;20.10;61.20;;;;;;5041668;28;20376;-57
2024/04/03 12:15:29;;;;;;;3.03;1.13;;;20.20;61.10;;;;;;5037575;28;20043;-57
2024/04/03 12:18:20;;;;;;;5.05;1.88;;;20.40;61.10;;;;;;5027317;28;20052;-56
2024/04/03 12:21:09;;;;;;;5.00;1.20;;;20.40;60.80;;;;;;5038913;28;20044;-57
2024/04/03 12:23:53;;;;;;;2.00;1.00;;;20.60;60.90;;;;;;5045655;28;20044;-58
2024/04/03 12:26:39;;;;;;;4.35;1.60;;;20.70;60.80;;;;;;5038209;28;20134;-57
2024/04/03 12:29:24;;;;;;;3.15;1.30;;;20.80;60.80;;;;;;5036681;28;20036;-56
2024/04/03 12:32:09;;;;;;;3.92;1.08;;;21.00;60.80;;;;;;5038828;28;20051;-57
2024/04/03 12:34:54;;;;;;;2.15;1.00;;;21.10;60.70;;;;;;5032212;28;20063;-57
2024/04/03 12:37:39;;;;;;;5.05;1.50;;;21.20;60.60;;;;;;5029939;28;20056;-57
2024/04/03 12:40:23;;;;;;;2.78;0.93;;;21.40;61.20;;;;;;5050755;28;20048;-57
2024/04/03 12:43:10;;;;;;;5.32;1.35;;;21.50;60.50;;;;;;5066402;28;20459;-58
2024/04/03 12:45:58;;;;;;;4.43;1.65;;;21.60;60.30;;;;;;5035172;28;20132;-57
2024/04/03 12:48:43;;;;;;;5.18;1.20;;;21.60;60.10;;;;;;5052231;28;20553;-56
2024/04/03 12:51:28;;;;;;;3.83;1.63;;;21.70;60.10;;;;;;5045020;28;20544;-57
2024/04/03 12:54:12;;;;;;;4.90;1.05;;;21.70;60.00;;;;;;5050836;28;20423;-57
2024/04/03 12:56:57;;;;;;;4.88;1.20;;;21.80;60.10;;;;;;5033686;28;20128;-55
2024/04/03 12:59:42;;;;;;;5.40;1.33;;;21.80;59.90;;;;;;5040689;28;20526;-56
2024/04/03 13:02:28;;;;;;;2.35;1.10;;;21.90;59.70;;;;;;5031611;28;20088;-58
2024/04/03 13:05:13;;;;;;;6.68;1.45;;;21.90;59.50;;;;;;5062869;28;20051;-56
2024/04/03 13:07:58;;;;;;;5.20;1.15;;;22.10;59.70;;;;;;5026423;28;20036;-57
2024/04/03 13:10:44;;;;;;;4.60;2.40;;;22.10;59.50;;;;;;5032236;28;20199;-57
2024/04/03 13:13:29;;;;;;;6.25;1.67;;;22.20;59.40;;;;;;5059036;28;20031;-58
2024/04/03 13:16:13;;;;;;;4.68;1.30;;;22.20;59.20;;;;;;5049779;28;20056;-57
2024/04/03 13:18:58;;;;;;;6.32;1.50;;;22.30;59.20;;;;;;5050084;28;20034;-57
2024/04/03 13:21:43;;;;;;;4.25;1.20;;;22.40;59.10;;;;;;5032778;28;20243;-56
2024/04/03 13:24:28;;;;;;;3.97;1.10;;;22.40;58.90;;;;;;5027136;28;20482;-60
2024/04/03 13:27:12;;;;;;;4.93;1.77;;;22.50;58.90;;;;;;5036145;28;20094;-57
2024/04/03 13:29:58;;;;;;;3.22;1.55;;;22.60;58.90;;;;;;5030330;28;20199;-59
2024/04/03 13:32:44;;;;;;;5.63;1.40;;;22.80;59.00;;;;;;5055978;28;20094;-58
2024/04/03 13:35:28;;;;;;;3.42;0.85;;;22.90;59.00;;;;;;5028082;28;20124;-57
2024/04/03 13:38:15;;;;;;;3.20;1.42;;;22.90;58.80;;;;;;5036897;28;20122;-57
2024/04/03 13:41:01;;;;;;;4.13;1.20;;;22.90;58.80;;;;;;5027496;28;20036;-59
2024/04/03 13:43:45;;;;;;;4.53;1.00;;;22.90;58.80;;;;;;5038326;28;21561;-58
2024/04/03 13:46:30;;;;;;;3.75;0.90;;;22.80;58.70;;;;;;5043914;28;20098;-57
2024/04/03 13:49:16;;;;;;;2.50;0.80;;;22.80;58.60;;;;;;5044640;28;20324;-57
2024/04/03 13:52:00;;;;;;;4.70;1.10;;;22.80;58.50;;;;;;5047021;28;20513;-57
2024/04/03 13:54:52;;;;;;;3.10;1.20;;;22.70;58.30;;;;;;5074589;28;20047;-57
2024/04/03 13:57:36;;;;;;;3.40;0.85;;;22.60;58.00;;;;;;5053303;28;20042;-58
2024/04/03 14:00:21;;;;;;;6.10;1.20;;;22.40;57.70;;;;;;5038952;28;20060;-57
2024/04/03 14:03:06;;;;;;;4.82;1.00;;;22.30;57.60;;;;;;5042161;28;20573;-57
2024/04/03 14:05:51;;;;;;;5.35;1.02;;;22.20;57.50;;;;;;5038710;28;20226;-57
2024/04/03 14:08:37;;;;;;;5.60;1.27;;;22.20;57.50;;;;;;5041026;28;20367;-58
2024/04/03 14:11:22;;;;;;;3.38;0.77;;;22.10;57.20;;;;;;5038945;28;20067;-58
2024/04/03 14:14:07;;;;;;;6.07;1.58;;;22.10;57.20;;;;;;5039716;28;20430;-57
2024/04/03 14:16:53;;;;;;;5.22;1.65;;;22.00;57.00;;;;;;5038071;28;20610;-56
2024/04/03 14:19:38;;;;;;;4.35;1.27;;;22.00;57.00;;;;;;5043772;28;20043;-57
2024/04/03 14:22:23;;;;;;;4.97;1.17;;;22.00;56.90;;;;;;5022172;28;20605;-54